createdAt,value
2022-12-19T00:01:34.318Z,103650.23
2022-12-19T00:04:07.026Z,103649.34
2022-12-19T00:06:37.395Z,103651.33
2022-12-19T00:09:05.157Z,103652.39
2022-12-19T00:11:33.617Z,103652.86
2022-12-19T00:14:00.361Z,103656.77
2022-12-19T00:16:29.113Z,103652.98
2022-12-19T00:18:58.521Z,103651.48
2022-12-19T00:21:27.956Z,103651.47
2022-12-19T00:23:54.990Z,103651.10
2022-12-19T00:26:24.189Z,103650.23
2022-12-19T00:28:54.666Z,103653.38
2022-12-19T00:31:26.710Z,103654.01
2022-12-19T00:33:53.521Z,103649.59
2022-12-19T00:36:25.315Z,103646.95
2022-12-19T00:38:54.131Z,103643.39
2022-12-19T00:41:24.899Z,103640.86
2022-12-19T00:43:56.156Z,103641.02
2022-12-19T00:46:24.144Z,103641.40
2022-12-19T00:48:50.906Z,103637.88
2022-12-19T00:51:20.339Z,103632.67
2022-12-19T00:53:48.935Z,103632.14
2022-12-19T00:56:18.956Z,103625.88
2022-12-19T00:58:47.330Z,103628.61
2022-12-19T01:01:17.493Z,103620.87
2022-12-19T01:04:04.511Z,103610.70
2022-12-19T01:06:32.022Z,103609.39
2022-12-19T01:08:58.761Z,103604.27
2022-12-19T01:11:44.110Z,103603.97
2022-12-19T01:14:14.939Z,103598.88
2022-12-19T01:16:44.467Z,103606.39
2022-12-19T01:19:11.314Z,103605.32
2022-12-19T01:21:37.961Z,103604.83
2022-12-19T01:24:06.077Z,103595.65
2022-12-19T01:26:32.767Z,103591.33
2022-12-19T01:28:59.805Z,103587.88
2022-12-19T01:31:27.425Z,103582.86
2022-12-19T01:33:55.334Z,103575.05
2022-12-19T01:36:22.687Z,103577.11
2022-12-19T01:38:49.281Z,103571.31
2022-12-19T01:41:15.923Z,103567.46
2022-12-19T01:43:56.934Z,103560.02
2022-12-19T01:46:35.417Z,103555.22
2022-12-19T01:49:03.962Z,103549.46
2022-12-19T01:51:40.946Z,103548.35
2022-12-19T01:54:11.949Z,103540.41
2022-12-19T01:56:42.017Z,103535.09
2022-12-19T01:59:15.945Z,103530.73
2022-12-19T02:01:51.210Z,103529.98
2022-12-19T02:04:30.911Z,103526.94
2022-12-19T02:07:03.536Z,103518.94
2022-12-19T02:09:47.116Z,103513.98
2022-12-19T02:12:17.162Z,103505.19
2022-12-19T02:14:44.267Z,103505.72
2022-12-19T02:20:44.730Z,103495.02
2022-12-19T02:23:50.190Z,103497.73
2022-12-19T02:26:43.668Z,103491.17
2022-12-19T02:29:28.838Z,103492.04
2022-12-19T02:32:04.168Z,103487.25
2022-12-19T02:35:02.155Z,103480.53
2022-12-19T02:37:33.709Z,103474.05
2022-12-19T02:40:26.696Z,103469.86
2022-12-19T02:42:58.855Z,103469.17
2022-12-19T02:45:30.367Z,103470.29
2022-12-19T02:48:04.563Z,103468.47
2022-12-19T02:50:42.171Z,103471.06
2022-12-19T02:53:11.968Z,103475.91
2022-12-19T02:55:48.892Z,103476.89
2022-12-19T02:58:15.641Z,103476.90
2022-12-19T03:01:02.788Z,103473.86
2022-12-19T03:03:52.326Z,103471.27
2022-12-19T03:06:36.781Z,103466.94
2022-12-19T03:09:11.435Z,103469.17
2022-12-19T03:11:41.533Z,103472.77
2022-12-19T03:14:15.944Z,103467.99
2022-12-19T03:16:42.822Z,103458.39
2022-12-19T03:19:13.009Z,103456.31
2022-12-19T03:21:43.547Z,103452.36
2022-12-19T03:24:12.527Z,103453.27
2022-12-19T03:26:55.181Z,103451.04
2022-12-19T03:29:37.857Z,103454.67
2022-12-19T03:32:08.846Z,103454.15
2022-12-19T03:34:44.484Z,103458.79
2022-12-19T03:37:16.962Z,103454.59
2022-12-19T03:39:49.334Z,103452.29
2022-12-19T03:42:36.918Z,103446.70
2022-12-19T03:45:06.133Z,103444.70
2022-12-19T03:47:46.474Z,103439.48
2022-12-19T03:50:13.276Z,103442.20
2022-12-19T03:53:30.746Z,103440.40
2022-12-19T03:56:22.081Z,103441.19
2022-12-19T03:58:56.074Z,103443.27
2022-12-19T04:01:25.533Z,103452.41
2022-12-19T04:03:52.495Z,103446.79
2022-12-19T04:06:19.615Z,103444.11
2022-12-19T04:08:46.518Z,103441.64
2022-12-19T04:11:19.457Z,103440.08
2022-12-19T04:13:54.221Z,103441.29
2022-12-19T04:16:41.546Z,103437.58
2022-12-19T04:19:42.457Z,103436.56
2022-12-19T04:22:50.731Z,103434.45
2022-12-19T04:25:26.284Z,103427.34
2022-12-19T04:28:01.376Z,103421.09
2022-12-19T04:30:28.426Z,103418.34
2022-12-19T04:32:56.597Z,103418.46
2022-12-19T04:35:23.380Z,103422.58
2022-12-19T04:37:51.476Z,103421.86
2022-12-19T04:40:18.274Z,103421.88
2022-12-19T04:42:44.848Z,103421.42
2022-12-19T04:45:11.436Z,103420.04
2022-12-19T04:47:38.365Z,103417.41
2022-12-19T04:50:05.805Z,103410.86
2022-12-19T04:52:32.458Z,103412.51
2022-12-19T04:54:59.297Z,103407.45
2022-12-19T04:57:29.423Z,103408.84
2022-12-19T04:59:56.057Z,103408.29
2022-12-19T05:02:23.501Z,103405.35
2022-12-19T05:04:51.055Z,103403.84
2022-12-19T05:07:17.706Z,103399.76
2022-12-19T05:09:44.360Z,103391.31
2022-12-19T05:12:11.185Z,103393.80
2022-12-19T05:14:37.788Z,103396.30
2022-12-19T05:17:04.441Z,103394.91
2022-12-19T05:19:31.034Z,103395.86
2022-12-19T05:21:58.250Z,103395.13
2022-12-19T05:24:24.891Z,103389.92
2022-12-19T05:26:51.518Z,103394.47
2022-12-19T05:29:18.197Z,103390.46
2022-12-19T05:31:44.950Z,103383.79
2022-12-19T05:34:11.739Z,103383.48
2022-12-19T05:36:38.478Z,103385.63
2022-12-19T05:39:05.230Z,103385.64
2022-12-19T05:41:31.954Z,103388.63
2022-12-19T05:43:58.836Z,103381.20
2022-12-19T05:46:26.694Z,103386.16
2022-12-19T05:48:54.000Z,103380.34
2022-12-19T05:51:21.066Z,103377.81
2022-12-19T05:53:47.821Z,103377.19
2022-12-19T05:56:17.187Z,103371.30
2022-12-19T05:58:44.763Z,103363.36
2022-12-19T06:01:16.025Z,103359.56
2022-12-19T06:03:43.571Z,103359.15
2022-12-19T06:06:13.459Z,103357.45
2022-12-19T06:08:40.884Z,103355.34
2022-12-19T06:11:10.132Z,103353.48
2022-12-19T06:13:38.032Z,103345.83
2022-12-19T06:16:12.296Z,103340.29
2022-12-19T06:18:44.490Z,103348.86
2022-12-19T06:21:17.546Z,103346.30
2022-12-19T06:23:45.031Z,103341.88
2022-12-19T06:26:19.072Z,103338.60
2022-12-19T06:28:50.143Z,103337.70
2022-12-19T06:31:18.379Z,103339.21
2022-12-19T06:33:45.174Z,103330.08
2022-12-19T06:36:17.556Z,103328.80
2022-12-19T06:38:44.201Z,103329.63
2022-12-19T06:41:29.512Z,103326.25
2022-12-19T06:44:00.554Z,103326.19
2022-12-19T06:46:27.567Z,103321.55
2022-12-19T06:48:54.392Z,103321.71
2022-12-19T06:51:21.350Z,103316.19
2022-12-19T06:53:48.765Z,103315.64
2022-12-19T06:56:16.602Z,103317.55
2022-12-19T06:58:43.303Z,103325.26
2022-12-19T07:01:32.437Z,103319.30
2022-12-19T07:03:59.507Z,103323.87
2022-12-19T07:06:26.253Z,103318.03
2022-12-19T07:08:53.004Z,103314.86
2022-12-19T07:11:19.627Z,103319.52
2022-12-19T07:13:46.465Z,103315.86
2022-12-19T07:16:13.372Z,103312.50
2022-12-19T07:18:40.644Z,103311.84
2022-12-19T07:21:10.781Z,103305.11
2022-12-19T07:23:38.733Z,103299.61
2022-12-19T07:26:05.708Z,103296.92
2022-12-19T07:28:34.101Z,103290.58
2022-12-19T07:31:00.808Z,103289.40
2022-12-19T07:33:27.447Z,103282.80
2022-12-19T07:35:54.197Z,103278.06
2022-12-19T07:38:21.027Z,103282.65
2022-12-19T07:40:47.661Z,103283.35
2022-12-19T07:43:14.346Z,103280.58
2022-12-19T07:45:42.654Z,103269.18
2022-12-19T07:48:09.825Z,103273.52
2022-12-19T07:50:36.571Z,103262.77
2022-12-19T07:53:03.305Z,103256.05
2022-12-19T07:55:29.993Z,103250.13
2022-12-19T07:57:56.689Z,103254.10
2022-12-19T08:00:23.429Z,103255.54
2022-12-19T08:02:50.345Z,103251.63
2022-12-19T08:05:17.932Z,103246.54
2022-12-19T08:07:44.871Z,103248.34
2022-12-19T08:10:14.004Z,103242.29
2022-12-19T08:12:41.341Z,103241.14
2022-12-19T08:15:09.027Z,103236.94
2022-12-19T08:17:38.326Z,103232.29
2022-12-19T08:20:07.427Z,103235.15
2022-12-19T08:22:34.193Z,103228.90
2022-12-19T08:25:00.848Z,103220.85
2022-12-19T08:27:27.795Z,103222.45
2022-12-19T08:29:54.538Z,103222.95
2022-12-19T08:32:22.020Z,103218.15
2022-12-19T08:34:49.523Z,103220.50
2022-12-19T08:37:16.742Z,103218.55
2022-12-19T08:39:43.523Z,103214.56
2022-12-19T08:42:10.276Z,103213.67
2022-12-19T08:44:36.976Z,103209.14
2022-12-19T08:47:04.080Z,103209.44
2022-12-19T08:49:30.821Z,103208.90
2022-12-19T08:51:57.491Z,103209.91
2022-12-19T08:54:24.282Z,103205.47
2022-12-19T08:56:51.137Z,103203.95
2022-12-19T08:59:19.278Z,103196.89
2022-12-19T09:01:58.125Z,103189.57
2022-12-19T09:05:39.522Z,103182.52
2022-12-19T09:07:15.281Z,103182.56
2022-12-19T09:09:43.852Z,103175.36
2022-12-19T09:12:12.852Z,103168.89
2022-12-19T09:14:39.574Z,103166.38
2022-12-19T09:17:06.377Z,103154.94
2022-12-19T09:19:33.352Z,103141.36
2022-12-19T09:22:00.013Z,103134.79
2022-12-19T09:24:26.722Z,103131.52
2022-12-19T09:26:53.521Z,103124.67
2022-12-19T09:29:21.795Z,103121.19
2022-12-19T09:31:55.303Z,103119.05
2022-12-19T09:34:36.839Z,103115.71
2022-12-19T09:37:07.325Z,103110.50
2022-12-19T09:39:35.533Z,103104.52
2022-12-19T09:42:05.343Z,103090.41
2022-12-19T09:44:59.458Z,103090.13
2022-12-19T09:47:30.399Z,103082.91
2022-12-19T09:49:59.251Z,103073.17
2022-12-19T09:52:37.964Z,103070.28
2022-12-19T09:55:09.564Z,103066.91
2022-12-19T09:58:00.830Z,103053.89
2022-12-19T10:00:39.746Z,103040.23
2022-12-19T10:03:32.305Z,103030.95
2022-12-19T10:07:11.070Z,103017.19
2022-12-19T10:09:57.790Z,103017.28
2022-12-19T10:12:43.318Z,103007.85
2022-12-19T10:15:19.147Z,103013.98
2022-12-19T10:17:48.613Z,103012.09
2022-12-19T10:20:27.751Z,103009.80
2022-12-19T10:23:22.057Z,103010.16
2022-12-19T10:26:22.877Z,103007.02
2022-12-19T10:29:05.952Z,102997.77
2022-12-19T10:31:47.689Z,102997.10
2022-12-19T10:34:24.058Z,102987.18
2022-12-19T10:37:27.193Z,102981.17
2022-12-19T10:39:52.824Z,102973.15
2022-12-19T10:42:33.023Z,102967.16
2022-12-19T10:45:04.262Z,102968.70
2022-12-19T10:47:31.180Z,102955.25
2022-12-19T10:49:59.515Z,102953.35
2022-12-19T10:52:48.203Z,102961.41
2022-12-19T10:55:34.138Z,102962.58
2022-12-19T10:58:16.572Z,102959.95
2022-12-19T11:01:16.431Z,102958.41
2022-12-19T11:03:47.774Z,102950.88
2022-12-19T11:06:35.940Z,102943.55
2022-12-19T11:09:36.041Z,102943.20
2022-12-19T11:16:38.405Z,102925.95
2022-12-19T11:19:47.138Z,102916.56
2022-12-19T11:29:15.318Z,102902.80
2022-12-19T11:29:25.172Z,102894.87
2022-12-19T11:29:54.359Z,102887.73
2022-12-19T11:30:21.353Z,102880.87
2022-12-19T11:32:50.547Z,102864.84
2022-12-19T11:35:17.737Z,102857.72
2022-12-19T11:38:04.283Z,102853.08
2022-12-19T11:40:31.288Z,102859.93
2022-12-19T11:43:42.693Z,102852.84
2022-12-19T11:46:02.019Z,102844.20
2022-12-19T11:48:47.487Z,102845.45
2022-12-19T11:51:23.609Z,102837.63
2022-12-19T11:54:01.957Z,102834.23
2022-12-19T11:56:29.174Z,102829.41
2022-12-19T11:59:16.252Z,102825.17
2022-12-19T12:02:00.598Z,102820.38
2022-12-19T12:04:48.745Z,102825.05
2022-12-19T12:07:19.311Z,102817.98
2022-12-19T12:14:06.243Z,102814.85
2022-12-19T12:19:23.184Z,102809.80
2022-12-19T12:26:43.809Z,102804.18
2022-12-19T12:31:31.783Z,102789.49
2022-12-19T12:31:44.393Z,102773.26
2022-12-19T12:32:01.908Z,102784.50
2022-12-19T12:32:01.910Z,102759.24
2022-12-19T12:35:52.122Z,102756.70
2022-12-19T12:36:53.017Z,102748.05
2022-12-19T12:38:22.441Z,102740.27
2022-12-19T12:41:42.971Z,102725.11
2022-12-19T12:44:11.598Z,102719.36
2022-12-19T12:47:00.839Z,102713.42
2022-12-19T12:49:45.858Z,102708.25
2022-12-19T12:52:31.147Z,102694.42
2022-12-19T12:54:58.338Z,102692.77
2022-12-19T12:57:28.713Z,102696.37
2022-12-19T13:00:33.309Z,102691.70
2022-12-19T13:03:19.053Z,102681.41
2022-12-19T13:05:45.773Z,102680.36
2022-12-19T13:08:34.119Z,102680.27
2022-12-19T13:11:33.609Z,102680.72
2022-12-19T13:14:00.711Z,102673.40
2022-12-19T13:16:47.803Z,102663.22
2022-12-19T13:19:28.700Z,102664.69
2022-12-19T13:22:08.126Z,102664.59
2022-12-19T13:24:46.870Z,102655.77
2022-12-19T13:27:19.479Z,102653.23
2022-12-19T13:30:07.431Z,102649.25
2022-12-19T13:32:39.906Z,102647.89
2022-12-19T13:36:18.018Z,102644.68
2022-12-19T13:39:51.734Z,102643.64
2022-12-19T13:41:23.354Z,102637.40
2022-12-19T13:43:50.068Z,102642.52
2022-12-19T13:46:37.859Z,102637.88
2022-12-19T13:49:29.865Z,102634.15
2022-12-19T13:52:01.552Z,102632.73
2022-12-19T13:54:33.985Z,102632.66
2022-12-19T13:57:08.069Z,102624.48
2022-12-19T13:59:39.760Z,102626.07
2022-12-19T14:02:15.997Z,102614.96
2022-12-19T14:04:44.198Z,102615.77
2022-12-19T14:07:45.951Z,102614.91
2022-12-19T14:11:32.691Z,102606.95
2022-12-19T14:13:40.015Z,102601.91
2022-12-19T14:16:23.377Z,102597.93
2022-12-19T14:19:27.284Z,102596.05
2022-12-19T14:22:11.705Z,102595.73
2022-12-19T14:24:41.211Z,102594.80
2022-12-19T14:28:20.605Z,102590.27
2022-12-19T14:30:31.006Z,102563.33
2022-12-19T14:33:39.880Z,102554.23
2022-12-19T14:36:10.320Z,102556.25
2022-12-19T14:39:26.451Z,102567.14
2022-12-19T14:42:01.397Z,102567.52
2022-12-19T14:51:51.587Z,102554.54
2022-12-19T14:52:51.356Z,102556.20
2022-12-19T14:54:25.924Z,102545.80
2022-12-19T14:54:55.127Z,102536.11
2022-12-19T14:56:46.786Z,102530.93
2022-12-19T14:59:04.985Z,102534.20
2022-12-19T15:01:34.420Z,102529.48
2022-12-19T15:04:49.348Z,102525.81
2022-12-19T15:07:09.859Z,102522.17
2022-12-19T15:11:04.448Z,102524.25
2022-12-19T15:14:47.838Z,102528.79
2022-12-19T15:16:05.910Z,102538.73
2022-12-19T15:18:32.810Z,102533.81
2022-12-19T15:21:01.871Z,102528.20
2022-12-19T15:23:29.234Z,102525.00
2022-12-19T15:26:03.817Z,102515.25
2022-12-19T15:28:40.509Z,102512.27
2022-12-19T15:31:35.842Z,102506.52
2022-12-19T15:34:34.995Z,102495.16
2022-12-19T15:37:03.871Z,102493.64
2022-12-19T15:39:30.522Z,102488.78
2022-12-19T15:41:59.723Z,102480.48
2022-12-19T15:44:41.697Z,102475.77
2022-12-19T15:47:19.057Z,102472.95
2022-12-19T15:49:46.263Z,102466.96
2022-12-19T15:52:17.281Z,102466.32
2022-12-19T15:54:49.705Z,102461.13
2022-12-19T15:57:29.255Z,102457.23
2022-12-19T15:59:59.428Z,102453.77
2022-12-19T16:02:42.632Z,102446.83
2022-12-19T16:05:15.768Z,102444.42
2022-12-19T16:07:43.064Z,102438.23
2022-12-19T16:10:11.437Z,102438.25
2022-12-19T16:12:41.109Z,102439.38
2022-12-19T16:15:24.680Z,102441.91
2022-12-19T16:17:52.637Z,102437.53
2022-12-19T16:20:30.651Z,102437.68
2022-12-19T16:22:57.493Z,102441.13
2022-12-19T16:25:30.698Z,102439.96
2022-12-19T16:27:59.235Z,102441.37
2022-12-19T16:30:30.117Z,102437.27
2022-12-19T16:32:57.647Z,102430.00
2022-12-19T16:35:54.918Z,102430.23
2022-12-19T16:38:12.700Z,102431.43
2022-12-19T16:40:39.744Z,102419.46
2022-12-19T16:43:14.937Z,102412.41
2022-12-19T16:45:42.715Z,102408.70
2022-12-19T16:48:22.615Z,102408.66
2022-12-19T16:50:50.358Z,102407.87
2022-12-19T16:53:17.419Z,102403.60
2022-12-19T16:55:46.525Z,102403.73
2022-12-19T16:58:18.346Z,102394.45
2022-12-19T17:00:45.589Z,102397.77
2022-12-19T17:03:34.396Z,102394.35
2022-12-19T17:06:01.282Z,102398.43
2022-12-19T17:08:27.907Z,102396.93
2022-12-19T17:10:55.220Z,102397.80
2022-12-19T17:13:23.014Z,102397.94
2022-12-19T17:15:56.429Z,102405.14
2022-12-19T17:18:26.190Z,102402.77
2022-12-19T17:20:53.011Z,102399.15
2022-12-19T17:23:22.043Z,102385.12
2022-12-19T17:25:49.256Z,102379.14
2022-12-19T17:28:16.628Z,102363.38
2022-12-19T17:30:52.031Z,102354.34
2022-12-19T17:33:21.613Z,102354.40
2022-12-19T17:35:48.313Z,102354.05
2022-12-19T17:38:16.982Z,102352.73
2022-12-19T17:40:44.252Z,102349.39
2022-12-19T17:43:11.929Z,102347.58
2022-12-19T17:45:39.257Z,102352.65
2022-12-19T17:48:20.424Z,102344.52
2022-12-19T17:50:47.492Z,102324.80
2022-12-19T17:53:14.809Z,102323.20
2022-12-19T17:55:41.403Z,102318.91
2022-12-19T17:58:10.058Z,102314.38
2022-12-19T18:00:37.849Z,102303.57
2022-12-19T18:03:17.061Z,102297.13
2022-12-19T18:05:44.037Z,102297.17
2022-12-19T18:08:36.720Z,102283.54
2022-12-19T18:11:06.983Z,102270.47
2022-12-19T18:13:33.615Z,102272.56
2022-12-19T18:16:02.850Z,102270.59
2022-12-19T18:18:33.174Z,102263.16
2022-12-19T18:21:00.598Z,102261.36
2022-12-19T18:23:27.836Z,102264.51
2022-12-19T18:25:59.470Z,102270.69
2022-12-19T18:28:28.584Z,102265.39
2022-12-19T18:31:02.413Z,102268.02
2022-12-19T18:33:36.202Z,102265.69
2022-12-19T18:36:05.061Z,102265.59
2022-12-19T18:38:32.189Z,102261.09
2022-12-19T18:40:58.861Z,102246.73
2022-12-19T18:43:25.513Z,102240.85
2022-12-19T18:45:52.722Z,102239.08
2022-12-19T18:48:25.255Z,102224.40
2022-12-19T18:50:52.877Z,102212.32
2022-12-19T18:53:21.811Z,102203.30
2022-12-19T18:55:50.435Z,102204.06
2022-12-19T18:58:18.555Z,102209.88
2022-12-19T19:00:46.390Z,102214.59
2022-12-19T19:03:16.166Z,102213.27
2022-12-19T19:05:43.973Z,102212.38
2022-12-19T19:08:22.171Z,102206.15
2022-12-19T19:10:55.883Z,102205.95
2022-12-19T19:13:24.893Z,102198.46
2022-12-19T19:15:56.172Z,102191.71
2022-12-19T19:18:46.432Z,102178.42
2022-12-19T19:21:14.765Z,102166.41
2022-12-19T19:24:07.653Z,102166.94
2022-12-19T19:26:34.367Z,102167.97
2022-12-19T19:29:01.070Z,102157.42
2022-12-19T19:31:31.112Z,102150.96
2022-12-19T19:34:04.348Z,102149.55
2022-12-19T19:36:35.357Z,102141.48
2022-12-19T19:39:03.980Z,102135.02
2022-12-19T19:41:32.408Z,102133.33
2022-12-19T19:43:59.552Z,102131.02
2022-12-19T19:46:27.592Z,102131.65
2022-12-19T19:48:54.814Z,102128.63
2022-12-19T19:51:21.517Z,102118.84
2022-12-19T19:53:48.309Z,102113.30
2022-12-19T19:56:14.927Z,102107.55
2022-12-19T19:58:41.531Z,102100.83
2022-12-19T20:01:10.221Z,102099.10
2022-12-19T20:03:39.208Z,102100.23
2022-12-19T20:06:06.169Z,102101.12
2022-12-19T20:08:39.202Z,102104.54
2022-12-19T20:11:08.673Z,102106.38
2022-12-19T20:13:36.960Z,102099.92
2022-12-19T20:16:10.636Z,102097.13
2022-12-19T20:18:39.404Z,102097.19
2022-12-19T20:21:13.603Z,102086.45
2022-12-19T20:23:42.661Z,102080.30
2022-12-19T20:26:11.004Z,102076.58
2022-12-19T20:28:43.718Z,102070.23
2022-12-19T20:31:14.279Z,102060.68
2022-12-19T20:33:41.143Z,102056.14
2022-12-19T20:36:10.342Z,102059.23
2022-12-19T20:38:38.149Z,102056.37
2022-12-19T20:41:05.385Z,102041.88
2022-12-19T20:43:32.322Z,102038.64
2022-12-19T20:46:03.829Z,102033.70
2022-12-19T20:48:31.031Z,102033.16
2022-12-19T20:50:59.087Z,102031.77
2022-12-19T20:53:26.552Z,102030.57
2022-12-19T20:55:58.594Z,102024.67
2022-12-19T20:58:26.551Z,102017.75
2022-12-19T21:01:17.597Z,102019.09
2022-12-19T21:03:45.482Z,102011.77
2022-12-19T21:06:16.021Z,102008.98
2022-12-19T21:08:42.690Z,102009.09
2022-12-19T21:11:09.387Z,102008.33
2022-12-19T21:13:37.653Z,102009.02
2022-12-19T21:16:07.948Z,102011.09
2022-12-19T21:18:37.062Z,102009.33
2022-12-19T21:21:04.737Z,102004.31
2022-12-19T21:23:32.034Z,101998.52
2022-12-19T21:26:01.338Z,101998.43
2022-12-19T21:28:28.789Z,101989.98
2022-12-19T21:31:00.343Z,101985.40
2022-12-19T21:33:27.505Z,101980.36
2022-12-19T21:35:54.665Z,101978.27
2022-12-19T21:38:21.733Z,101973.23
2022-12-19T21:40:48.437Z,101970.73
2022-12-19T21:43:15.656Z,101964.90
2022-12-19T21:45:42.258Z,101964.20
2022-12-19T21:48:08.970Z,101960.94
2022-12-19T21:50:35.690Z,101962.88
2022-12-19T21:53:02.291Z,101959.37
2022-12-19T21:55:28.888Z,101950.35
2022-12-19T21:57:55.730Z,101952.83
2022-12-19T22:00:22.576Z,101941.31
2022-12-19T22:03:12.212Z,101937.44
2022-12-19T22:05:36.102Z,101938.11
2022-12-19T22:08:02.833Z,101930.67
2022-12-19T22:10:29.494Z,101928.60
2022-12-19T22:12:56.115Z,101929.90
2022-12-19T22:15:22.663Z,101931.59
2022-12-19T22:17:49.251Z,101925.95
2022-12-19T22:20:16.058Z,101924.73
2022-12-19T22:22:42.619Z,101925.08
2022-12-19T22:25:09.566Z,101919.02
2022-12-19T22:27:36.234Z,101916.70
2022-12-19T22:30:08.700Z,101910.91
2022-12-19T22:32:37.567Z,101905.79
2022-12-19T22:35:04.975Z,101901.89
2022-12-19T22:37:31.695Z,101899.27
2022-12-19T22:39:59.558Z,101898.45
2022-12-19T22:42:27.270Z,101891.05
2022-12-19T22:44:53.852Z,101887.86
2022-12-19T22:47:20.417Z,101890.10
2022-12-19T22:49:50.210Z,101886.22
2022-12-19T22:52:16.931Z,101885.55
2022-12-19T22:54:43.858Z,101870.86
2022-12-19T22:57:10.435Z,101867.54
2022-12-19T22:59:37.070Z,101866.80
2022-12-19T23:02:03.887Z,101860.83
2022-12-19T23:04:30.657Z,101862.16
2022-12-19T23:06:57.301Z,101855.49
2022-12-19T23:09:23.883Z,101850.41
2022-12-19T23:11:50.589Z,101849.02
2022-12-19T23:14:18.854Z,101847.91
2022-12-19T23:16:46.312Z,101844.87
2022-12-19T23:19:15.943Z,101842.30
2022-12-19T23:21:42.542Z,101835.36
2022-12-19T23:24:10.253Z,101837.55
2022-12-19T23:26:37.370Z,101827.26
2022-12-19T23:29:10.154Z,101825.86
2022-12-19T23:31:40.536Z,101824.90
2022-12-19T23:34:07.363Z,101815.10
2022-12-19T23:39:20.656Z,101802.20
2022-12-19T23:41:47.253Z,101796.34
2022-12-19T23:44:14.738Z,101793.20
2022-12-19T23:46:41.377Z,101786.45
2022-12-19T23:49:08.030Z,101788.98
2022-12-19T23:51:34.673Z,101781.95
2022-12-19T23:54:01.286Z,101782.92
2022-12-19T23:56:29.666Z,101782.02
2022-12-19T23:58:57.119Z,101777.64
